sensor_id;sensor_type;location;lat;lon;timestamp;temperature;humidity
55004;DHT22;40900;52.710;6.438;2022-08-11T00:01:27;20.60;99.90
55004;DHT22;40900;52.710;6.438;2022-08-11T00:03:58;20.60;99.90
55004;DHT22;40900;52.710;6.438;2022-08-11T00:06:30;20.60;99.90
55004;DHT22;40900;52.710;6.438;2022-08-11T00:08:57;20.60;99.90
55004;DHT22;40900;52.710;6.438;2022-08-11T00:11:35;20.50;99.90
55004;DHT22;40900;52.710;6.438;2022-08-11T00:14:03;20.50;99.90
55004;DHT22;40900;52.710;6.438;2022-08-11T00:16:29;20.40;99.90
55004;DHT22;40900;52.710;6.438;2022-08-11T00:18:56;20.30;99.90
55004;DHT22;40900;52.710;6.438;2022-08-11T00:21:25;20.30;99.90
55004;DHT22;40900;52.710;6.438;2022-08-11T00:23:54;20.30;99.90
55004;DHT22;40900;52.710;6.438;2022-08-11T00:26:22;20.30;99.90
55004;DHT22;40900;52.710;6.438;2022-08-11T00:28:49;20.30;99.90
55004;DHT22;40900;52.710;6.438;2022-08-11T00:31:25;20.20;99.90
55004;DHT22;40900;52.710;6.438;2022-08-11T00:33:53;20.20;99.90
55004;DHT22;40900;52.710;6.438;2022-08-11T00:36:25;20.10;99.90
55004;DHT22;40900;52.710;6.438;2022-08-11T00:38:52;20.00;99.90
55004;DHT22;40900;52.710;6.438;2022-08-11T00:41:44;20.00;99.90
55004;DHT22;40900;52.710;6.438;2022-08-11T00:44:20;20.00;99.90
55004;DHT22;40900;52.710;6.438;2022-08-11T00:46:54;19.90;99.90
55004;DHT22;40900;52.710;6.438;2022-08-11T00:58:04;19.90;99.90
55004;DHT22;40900;52.710;6.438;2022-08-11T01:00:34;19.80;99.90
55004;DHT22;40900;52.710;6.438;2022-08-11T01:03:26;19.80;99.90
55004;DHT22;40900;52.710;6.438;2022-08-11T01:18:09;19.60;99.90
55004;DHT22;40900;52.710;6.438;2022-08-11T01:54:07;19.20;99.90
55004;DHT22;40900;52.710;6.438;2022-08-11T01:56:45;19.20;99.90
55004;DHT22;40900;52.710;6.438;2022-08-11T01:59:48;19.10;99.90
55004;DHT22;40900;52.710;6.438;2022-08-11T02:11:21;19.20;99.90
55004;DHT22;40900;52.710;6.438;2022-08-11T02:17:08;19.20;99.90
55004;DHT22;40900;52.710;6.438;2022-08-11T02:26:17;19.10;99.90
55004;DHT22;40900;52.710;6.438;2022-08-11T02:29:46;19.10;99.90
55004;DHT22;40900;52.710;6.438;2022-08-11T02:35:34;19.10;99.90
55004;DHT22;40900;52.710;6.438;2022-08-11T02:38:18;19.10;99.90
55004;DHT22;40900;52.710;6.438;2022-08-11T02:43:52;19.00;99.90
55004;DHT22;40900;52.710;6.438;2022-08-11T02:46:32;19.00;99.90
55004;DHT22;40900;52.710;6.438;2022-08-11T02:51:54;18.90;99.90
55004;DHT22;40900;52.710;6.438;2022-08-11T02:54:32;18.90;99.90
55004;DHT22;40900;52.710;6.438;2022-08-11T02:57:07;18.90;99.90
55004;DHT22;40900;52.710;6.438;2022-08-11T03:00:03;18.90;99.90
55004;DHT22;40900;52.710;6.438;2022-08-11T03:05:24;18.90;99.90
55004;DHT22;40900;52.710;6.438;2022-08-11T03:11:14;18.90;99.90
55004;DHT22;40900;52.710;6.438;2022-08-11T03:14:16;18.80;99.90
55004;DHT22;40900;52.710;6.438;2022-08-11T03:20:13;18.80;99.90
55004;DHT22;40900;52.710;6.438;2022-08-11T03:34:02;18.80;99.90
55004;DHT22;40900;52.710;6.438;2022-08-11T03:39:47;18.80;99.90
55004;DHT22;40900;52.710;6.438;2022-08-11T04:02:20;18.50;99.90
55004;DHT22;40900;52.710;6.438;2022-08-11T04:10:59;18.50;99.90
55004;DHT22;40900;52.710;6.438;2022-08-11T04:32:00;18.40;99.90
55004;DHT22;40900;52.710;6.438;2022-08-11T04:37:46;18.30;99.90
55004;DHT22;40900;52.710;6.438;2022-08-11T05:10:54;18.50;99.90
55004;DHT22;40900;52.710;6.438;2022-08-11T05:13:36;18.50;99.90
55004;DHT22;40900;52.710;6.438;2022-08-11T05:16:27;18.50;99.90
55004;DHT22;40900;52.710;6.438;2022-08-11T05:19:17;18.50;99.90
55004;DHT22;40900;52.710;6.438;2022-08-11T05:22:02;18.50;99.90
55004;DHT22;40900;52.710;6.438;2022-08-11T05:24:55;18.50;99.90
55004;DHT22;40900;52.710;6.438;2022-08-11T05:27:48;18.60;99.90
55004;DHT22;40900;52.710;6.438;2022-08-11T05:30:35;18.60;99.90
55004;DHT22;40900;52.710;6.438;2022-08-11T05:33:33;18.70;99.90
55004;DHT22;40900;52.710;6.438;2022-08-11T05:36:27;18.70;99.90
55004;DHT22;40900;52.710;6.438;2022-08-11T05:38:58;18.80;99.90
55004;DHT22;40900;52.710;6.438;2022-08-11T05:41:43;18.90;99.90
55004;DHT22;40900;52.710;6.438;2022-08-11T05:44:28;18.90;99.90
55004;DHT22;40900;52.710;6.438;2022-08-11T05:47:24;19.00;99.90
55004;DHT22;40900;52.710;6.438;2022-08-11T05:50:13;19.00;99.90
55004;DHT22;40900;52.710;6.438;2022-08-11T05:52:58;19.10;99.90
55004;DHT22;40900;52.710;6.438;2022-08-11T05:55:43;19.10;99.90
55004;DHT22;40900;52.710;6.438;2022-08-11T05:58:42;19.20;99.90
55004;DHT22;40900;52.710;6.438;2022-08-11T06:01:19;19.20;99.90
55004;DHT22;40900;52.710;6.438;2022-08-11T06:03:52;19.20;99.90
55004;DHT22;40900;52.710;6.438;2022-08-11T06:06:38;19.30;99.90
55004;DHT22;40900;52.710;6.438;2022-08-11T06:09:06;19.30;99.90
55004;DHT22;40900;52.710;6.438;2022-08-11T06:11:37;19.30;99.90
55004;DHT22;40900;52.710;6.438;2022-08-11T06:14:05;19.40;99.90
55004;DHT22;40900;52.710;6.438;2022-08-11T06:16:32;19.40;99.90
55004;DHT22;40900;52.710;6.438;2022-08-11T06:18:59;19.50;99.90
55004;DHT22;40900;52.710;6.438;2022-08-11T06:21:25;19.50;99.90
55004;DHT22;40900;52.710;6.438;2022-08-11T06:23:53;19.60;99.90
55004;DHT22;40900;52.710;6.438;2022-08-11T06:26:20;19.70;99.90
55004;DHT22;40900;52.710;6.438;2022-08-11T06:28:47;19.80;99.90
55004;DHT22;40900;52.710;6.438;2022-08-11T06:31:16;19.90;99.90
55004;DHT22;40900;52.710;6.438;2022-08-11T06:34:06;19.80;99.90
55004;DHT22;40900;52.710;6.438;2022-08-11T06:36:34;19.90;99.90
55004;DHT22;40900;52.710;6.438;2022-08-11T06:41:39;20.10;99.90
55004;DHT22;40900;52.710;6.438;2022-08-11T06:46:44;20.20;99.90
55004;DHT22;40900;52.710;6.438;2022-08-11T06:49:14;20.30;99.90
55004;DHT22;40900;52.710;6.438;2022-08-11T06:52:04;20.40;99.90
55004;DHT22;40900;52.710;6.438;2022-08-11T06:54:33;20.50;99.90
55004;DHT22;40900;52.710;6.438;2022-08-11T06:57:00;20.60;99.90
55004;DHT22;40900;52.710;6.438;2022-08-11T06:59:47;20.70;99.90
55004;DHT22;40900;52.710;6.438;2022-08-11T07:03:07;20.80;99.90
55004;DHT22;40900;52.710;6.438;2022-08-11T07:05:51;20.90;99.90
55004;DHT22;40900;52.710;6.438;2022-08-11T07:08:41;21.00;99.90
55004;DHT22;40900;52.710;6.438;2022-08-11T07:11:58;21.10;99.90
55004;DHT22;40900;52.710;6.438;2022-08-11T07:14:50;21.20;99.90
55004;DHT22;40900;52.710;6.438;2022-08-11T07:17:43;21.30;99.90
55004;DHT22;40900;52.710;6.438;2022-08-11T07:20:14;21.50;99.90
55004;DHT22;40900;52.710;6.438;2022-08-11T07:23:01;21.60;99.90
55004;DHT22;40900;52.710;6.438;2022-08-11T07:25:51;21.70;99.90
55004;DHT22;40900;52.710;6.438;2022-08-11T07:28:41;21.80;99.90
55004;DHT22;40900;52.710;6.438;2022-08-11T07:31:33;22.00;99.90
55004;DHT22;40900;52.710;6.438;2022-08-11T07:34:18;22.10;99.90
55004;DHT22;40900;52.710;6.438;2022-08-11T07:36:56;22.20;99.90
55004;DHT22;40900;52.710;6.438;2022-08-11T07:39:30;22.30;99.90
55004;DHT22;40900;52.710;6.438;2022-08-11T07:41:58;22.40;99.90
55004;DHT22;40900;52.710;6.438;2022-08-11T07:44:26;22.60;99.90
55004;DHT22;40900;52.710;6.438;2022-08-11T07:46:54;22.80;99.90
55004;DHT22;40900;52.710;6.438;2022-08-11T07:49:39;22.90;99.90
55004;DHT22;40900;52.710;6.438;2022-08-11T07:52:28;23.10;99.90
55004;DHT22;40900;52.710;6.438;2022-08-11T07:57:32;23.70;99.90
55004;DHT22;40900;52.710;6.438;2022-08-11T08:00:17;24.20;99.90
55004;DHT22;40900;52.710;6.438;2022-08-11T08:03:03;25.00;99.90
55004;DHT22;40900;52.710;6.438;2022-08-11T08:05:49;26.00;99.30
55004;DHT22;40900;52.710;6.438;2022-08-11T08:08:34;26.90;98.10
55004;DHT22;40900;52.710;6.438;2022-08-11T08:11:20;27.70;96.00
55004;DHT22;40900;52.710;6.438;2022-08-11T08:14:06;28.30;95.00
55004;DHT22;40900;52.710;6.438;2022-08-11T08:16:51;28.80;94.00
55004;DHT22;40900;52.710;6.438;2022-08-11T08:19:36;29.60;93.40
55004;DHT22;40900;52.710;6.438;2022-08-11T08:22:02;30.00;92.60
55004;DHT22;40900;52.710;6.438;2022-08-11T08:24:28;30.30;91.60
55004;DHT22;40900;52.710;6.438;2022-08-11T08:26:56;30.80;91.40
55004;DHT22;40900;52.710;6.438;2022-08-11T08:29:31;31.10;90.60
55004;DHT22;40900;52.710;6.438;2022-08-11T08:32:17;31.50;89.00
55004;DHT22;40900;52.710;6.438;2022-08-11T08:34:45;31.70;90.10
55004;DHT22;40900;52.710;6.438;2022-08-11T08:37:11;32.00;88.80
55004;DHT22;40900;52.710;6.438;2022-08-11T08:39:37;32.00;87.90
55004;DHT22;40900;52.710;6.438;2022-08-11T08:42:08;32.60;88.10
55004;DHT22;40900;52.710;6.438;2022-08-11T08:44:40;32.90;86.50
55004;DHT22;40900;52.710;6.438;2022-08-11T08:47:11;32.90;86.30
55004;DHT22;40900;52.710;6.438;2022-08-11T08:49:43;33.00;85.20
55004;DHT22;40900;52.710;6.438;2022-08-11T08:52:15;33.20;84.40
55004;DHT22;40900;52.710;6.438;2022-08-11T08:54:43;33.40;83.50
55004;DHT22;40900;52.710;6.438;2022-08-11T08:57:11;33.40;83.10
55004;DHT22;40900;52.710;6.438;2022-08-11T08:59:44;33.90;83.00
55004;DHT22;40900;52.710;6.438;2022-08-11T09:02:11;34.20;81.90
55004;DHT22;40900;52.710;6.438;2022-08-11T09:04:38;34.70;81.00
55004;DHT22;40900;52.710;6.438;2022-08-11T09:07:11;34.80;80.80
55004;DHT22;40900;52.710;6.438;2022-08-11T09:09:42;35.00;79.80
55004;DHT22;40900;52.710;6.438;2022-08-11T09:12:10;35.20;79.40
55004;DHT22;40900;52.710;6.438;2022-08-11T09:14:39;35.40;78.00
55004;DHT22;40900;52.710;6.438;2022-08-11T09:17:46;35.60;78.00
55004;DHT22;40900;52.710;6.438;2022-08-11T09:20:20;35.60;76.30
55004;DHT22;40900;52.710;6.438;2022-08-11T09:22:48;35.60;73.90
55004;DHT22;40900;52.710;6.438;2022-08-11T09:25:33;35.70;73.90
55004;DHT22;40900;52.710;6.438;2022-08-11T09:28:20;35.80;74.50
55004;DHT22;40900;52.710;6.438;2022-08-11T09:30:48;36.00;74.00
55004;DHT22;40900;52.710;6.438;2022-08-11T09:33:19;36.20;72.80
55004;DHT22;40900;52.710;6.438;2022-08-11T09:35:47;36.30;72.40
55004;DHT22;40900;52.710;6.438;2022-08-11T09:38:15;36.50;70.70
55004;DHT22;40900;52.710;6.438;2022-08-11T09:41:06;36.20;69.80
55004;DHT22;40900;52.710;6.438;2022-08-11T09:43:35;36.50;70.60
55004;DHT22;40900;52.710;6.438;2022-08-11T09:46:25;36.60;69.50
55004;DHT22;40900;52.710;6.438;2022-08-11T09:48:52;36.40;67.70
55004;DHT22;40900;52.710;6.438;2022-08-11T09:51:22;36.80;68.60
55004;DHT22;40900;52.710;6.438;2022-08-11T09:53:48;36.60;69.30
55004;DHT22;40900;52.710;6.438;2022-08-11T09:56:21;37.10;68.90
55004;DHT22;40900;52.710;6.438;2022-08-11T09:59:06;37.20;67.90
55004;DHT22;40900;52.710;6.438;2022-08-11T10:01:45;37.00;68.50
55004;DHT22;40900;52.710;6.438;2022-08-11T10:04:22;37.30;68.50
55004;DHT22;40900;52.710;6.438;2022-08-11T10:06:51;37.30;68.80
55004;DHT22;40900;52.710;6.438;2022-08-11T10:09:35;37.30;68.70
55004;DHT22;40900;52.710;6.438;2022-08-11T10:12:05;37.30;68.00
55004;DHT22;40900;52.710;6.438;2022-08-11T10:14:33;37.40;68.10
55004;DHT22;40900;52.710;6.438;2022-08-11T10:17:20;37.40;68.40
55004;DHT22;40900;52.710;6.438;2022-08-11T10:19:48;37.30;69.00
55004;DHT22;40900;52.710;6.438;2022-08-11T10:22:15;37.30;68.10
55004;DHT22;40900;52.710;6.438;2022-08-11T10:25:02;37.40;68.50
55004;DHT22;40900;52.710;6.438;2022-08-11T10:27:47;37.30;68.80
55004;DHT22;40900;52.710;6.438;2022-08-11T10:30:21;37.10;68.40
55004;DHT22;40900;52.710;6.438;2022-08-11T10:33:06;37.30;68.60
55004;DHT22;40900;52.710;6.438;2022-08-11T10:35:51;37.80;69.00
55004;DHT22;40900;52.710;6.438;2022-08-11T10:38:17;37.60;68.30
55004;DHT22;40900;52.710;6.438;2022-08-11T10:40:45;37.40;68.10
55004;DHT22;40900;52.710;6.438;2022-08-11T10:43:12;37.50;67.20
55004;DHT22;40900;52.710;6.438;2022-08-11T10:45:43;37.30;67.00
55004;DHT22;40900;52.710;6.438;2022-08-11T10:48:29;37.10;66.70
55004;DHT22;40900;52.710;6.438;2022-08-11T10:50:57;37.30;67.00
55004;DHT22;40900;52.710;6.438;2022-08-11T10:53:47;37.70;67.60
55004;DHT22;40900;52.710;6.438;2022-08-11T10:56:36;37.80;66.50
55004;DHT22;40900;52.710;6.438;2022-08-11T10:59:23;38.00;66.60
55004;DHT22;40900;52.710;6.438;2022-08-11T11:01:52;37.90;67.20
55004;DHT22;40900;52.710;6.438;2022-08-11T11:04:57;37.70;66.20
55004;DHT22;40900;52.710;6.438;2022-08-11T11:07:37;37.80;66.40
55004;DHT22;40900;52.710;6.438;2022-08-11T11:10:05;37.60;66.10
55004;DHT22;40900;52.710;6.438;2022-08-11T11:12:44;37.50;66.20
55004;DHT22;40900;52.710;6.438;2022-08-11T11:15:31;37.70;65.40
55004;DHT22;40900;52.710;6.438;2022-08-11T11:18:26;37.80;65.80
55004;DHT22;40900;52.710;6.438;2022-08-11T11:21:12;37.80;64.90
55004;DHT22;40900;52.710;6.438;2022-08-11T11:26:24;37.40;65.10
55004;DHT22;40900;52.710;6.438;2022-08-11T11:32:17;36.40;64.80
55004;DHT22;40900;52.710;6.438;2022-08-11T11:37:42;35.40;65.10
55004;DHT22;40900;52.710;6.438;2022-08-11T11:40:11;35.20;65.80
55004;DHT22;40900;52.710;6.438;2022-08-11T11:42:44;34.90;66.40
55004;DHT22;40900;52.710;6.438;2022-08-11T11:45:14;34.90;66.70
55004;DHT22;40900;52.710;6.438;2022-08-11T11:47:41;34.90;66.10
55004;DHT22;40900;52.710;6.438;2022-08-11T11:50:09;34.90;66.20
55004;DHT22;40900;52.710;6.438;2022-08-11T11:52:37;34.70;65.40
55004;DHT22;40900;52.710;6.438;2022-08-11T11:55:04;34.60;65.90
55004;DHT22;40900;52.710;6.438;2022-08-11T11:57:32;34.50;66.10
55004;DHT22;40900;52.710;6.438;2022-08-11T12:00:18;34.70;66.30
55004;DHT22;40900;52.710;6.438;2022-08-11T12:03:07;34.50;66.20
55004;DHT22;40900;52.710;6.438;2022-08-11T12:05:35;34.40;66.60
55004;DHT22;40900;52.710;6.438;2022-08-11T12:08:02;34.30;67.10
55004;DHT22;40900;52.710;6.438;2022-08-11T12:10:37;34.40;66.60
55004;DHT22;40900;52.710;6.438;2022-08-11T12:13:04;34.50;66.70
55004;DHT22;40900;52.710;6.438;2022-08-11T12:15:49;34.40;66.80
55004;DHT22;40900;52.710;6.438;2022-08-11T12:18:17;34.20;66.20
55004;DHT22;40900;52.710;6.438;2022-08-11T12:20:44;34.30;65.50
55004;DHT22;40900;52.710;6.438;2022-08-11T12:23:11;34.20;65.80
55004;DHT22;40900;52.710;6.438;2022-08-11T12:25:57;34.10;65.60
55004;DHT22;40900;52.710;6.438;2022-08-11T12:28:43;34.00;66.20
55004;DHT22;40900;52.710;6.438;2022-08-11T12:31:09;34.00;66.30
55004;DHT22;40900;52.710;6.438;2022-08-11T12:33:38;33.80;65.90
55004;DHT22;40900;52.710;6.438;2022-08-11T12:36:07;33.70;66.20
55004;DHT22;40900;52.710;6.438;2022-08-11T12:38:35;33.70;66.30
55004;DHT22;40900;52.710;6.438;2022-08-11T12:41:01;33.70;66.60
55004;DHT22;40900;52.710;6.438;2022-08-11T12:43:46;33.80;66.40
55004;DHT22;40900;52.710;6.438;2022-08-11T12:46:35;33.60;67.00
55004;DHT22;40900;52.710;6.438;2022-08-11T12:49:14;33.60;67.50
55004;DHT22;40900;52.710;6.438;2022-08-11T12:52:04;33.60;66.90
55004;DHT22;40900;52.710;6.438;2022-08-11T12:57:12;33.50;66.40
55004;DHT22;40900;52.710;6.438;2022-08-11T12:59:59;33.50;66.00
55004;DHT22;40900;52.710;6.438;2022-08-11T13:02:45;33.40;66.70
55004;DHT22;40900;52.710;6.438;2022-08-11T13:05:31;33.50;66.60
55004;DHT22;40900;52.710;6.438;2022-08-11T13:08:00;33.50;66.70
55004;DHT22;40900;52.710;6.438;2022-08-11T13:10:27;33.60;67.20
55004;DHT22;40900;52.710;6.438;2022-08-11T13:13:13;33.60;66.60
55004;DHT22;40900;52.710;6.438;2022-08-11T13:15:40;33.40;67.30
55004;DHT22;40900;52.710;6.438;2022-08-11T13:18:06;33.50;66.90
55004;DHT22;40900;52.710;6.438;2022-08-11T13:20:34;33.40;66.70
55004;DHT22;40900;52.710;6.438;2022-08-11T13:23:00;33.50;66.40
55004;DHT22;40900;52.710;6.438;2022-08-11T13:25:29;33.40;66.10
55004;DHT22;40900;52.710;6.438;2022-08-11T13:27:57;33.40;66.50
55004;DHT22;40900;52.710;6.438;2022-08-11T13:30:29;33.30;67.10
55004;DHT22;40900;52.710;6.438;2022-08-11T13:33:16;33.40;67.10
55004;DHT22;40900;52.710;6.438;2022-08-11T13:35:44;33.30;67.30
55004;DHT22;40900;52.710;6.438;2022-08-11T13:38:11;33.40;67.70
55004;DHT22;40900;52.710;6.438;2022-08-11T13:40:39;33.50;67.10
55004;DHT22;40900;52.710;6.438;2022-08-11T13:43:05;33.50;66.90
55004;DHT22;40900;52.710;6.438;2022-08-11T13:45:32;33.50;67.40
55004;DHT22;40900;52.710;6.438;2022-08-11T13:48:00;33.50;68.10
55004;DHT22;40900;52.710;6.438;2022-08-11T13:50:28;33.60;68.00
55004;DHT22;40900;52.710;6.438;2022-08-11T13:53:14;33.60;67.80
55004;DHT22;40900;52.710;6.438;2022-08-11T13:55:42;33.60;67.30
55004;DHT22;40900;52.710;6.438;2022-08-11T13:58:12;33.60;66.90
55004;DHT22;40900;52.710;6.438;2022-08-11T14:00:38;33.60;66.60
55004;DHT22;40900;52.710;6.438;2022-08-11T14:03:09;33.60;67.40
55004;DHT22;40900;52.710;6.438;2022-08-11T14:05:39;33.60;66.90
55004;DHT22;40900;52.710;6.438;2022-08-11T14:08:09;33.40;66.90
55004;DHT22;40900;52.710;6.438;2022-08-11T14:10:37;33.30;66.90
55004;DHT22;40900;52.710;6.438;2022-08-11T14:13:13;33.30;67.10
55004;DHT22;40900;52.710;6.438;2022-08-11T14:16:03;33.40;67.50
55004;DHT22;40900;52.710;6.438;2022-08-11T14:18:32;33.40;67.50
55004;DHT22;40900;52.710;6.438;2022-08-11T14:21:03;33.30;66.40
55004;DHT22;40900;52.710;6.438;2022-08-11T14:23:51;33.20;66.90
55004;DHT22;40900;52.710;6.438;2022-08-11T14:26:20;33.30;67.20
55004;DHT22;40900;52.710;6.438;2022-08-11T14:28:58;33.30;66.70
55004;DHT22;40900;52.710;6.438;2022-08-11T14:31:26;33.20;65.60
55004;DHT22;40900;52.710;6.438;2022-08-11T14:33:54;33.30;66.20
55004;DHT22;40900;52.710;6.438;2022-08-11T14:36:23;33.30;66.20
55004;DHT22;40900;52.710;6.438;2022-08-11T14:38:49;33.30;65.80
55004;DHT22;40900;52.710;6.438;2022-08-11T14:41:17;33.40;66.10
55004;DHT22;40900;52.710;6.438;2022-08-11T14:44:02;33.40;65.80
55004;DHT22;40900;52.710;6.438;2022-08-11T14:46:48;33.40;65.20
55004;DHT22;40900;52.710;6.438;2022-08-11T14:49:29;33.30;65.40
55004;DHT22;40900;52.710;6.438;2022-08-11T14:51:56;33.30;65.90
55004;DHT22;40900;52.710;6.438;2022-08-11T14:54:25;33.30;66.00
55004;DHT22;40900;52.710;6.438;2022-08-11T14:57:11;33.20;66.50
55004;DHT22;40900;52.710;6.438;2022-08-11T14:59:38;33.30;66.40
55004;DHT22;40900;52.710;6.438;2022-08-11T15:02:04;33.30;66.50
55004;DHT22;40900;52.710;6.438;2022-08-11T15:04:52;33.30;66.50
55004;DHT22;40900;52.710;6.438;2022-08-11T15:07:20;33.30;66.30
55004;DHT22;40900;52.710;6.438;2022-08-11T15:09:58;33.20;66.20
55004;DHT22;40900;52.710;6.438;2022-08-11T15:12:25;33.10;65.40
55004;DHT22;40900;52.710;6.438;2022-08-11T15:14:51;33.10;65.80
55004;DHT22;40900;52.710;6.438;2022-08-11T15:17:36;33.10;66.10
55004;DHT22;40900;52.710;6.438;2022-08-11T15:20:07;33.10;65.70
55004;DHT22;40900;52.710;6.438;2022-08-11T15:22:52;33.10;65.80
55004;DHT22;40900;52.710;6.438;2022-08-11T15:25:38;32.90;65.90
55004;DHT22;40900;52.710;6.438;2022-08-11T15:28:07;32.90;65.70
55004;DHT22;40900;52.710;6.438;2022-08-11T15:30:54;33.00;65.60
55004;DHT22;40900;52.710;6.438;2022-08-11T15:33:42;32.90;65.60
55004;DHT22;40900;52.710;6.438;2022-08-11T15:36:29;33.00;65.90
55004;DHT22;40900;52.710;6.438;2022-08-11T15:39:40;33.10;66.00
55004;DHT22;40900;52.710;6.438;2022-08-11T15:42:30;33.10;66.00
55004;DHT22;40900;52.710;6.438;2022-08-11T15:45:21;33.10;65.20
55004;DHT22;40900;52.710;6.438;2022-08-11T15:48:09;32.90;65.10
55004;DHT22;40900;52.710;6.438;2022-08-11T15:50:40;32.90;65.30
55004;DHT22;40900;52.710;6.438;2022-08-11T15:55:59;32.80;65.50
55004;DHT22;40900;52.710;6.438;2022-08-11T15:58:29;32.80;65.30
55004;DHT22;40900;52.710;6.438;2022-08-11T16:01:15;32.70;65.60
55004;DHT22;40900;52.710;6.438;2022-08-11T16:04:05;32.70;66.30
55004;DHT22;40900;52.710;6.438;2022-08-11T16:06:44;32.60;66.70
55004;DHT22;40900;52.710;6.438;2022-08-11T16:09:14;32.70;68.30
55004;DHT22;40900;52.710;6.438;2022-08-11T16:11:43;32.60;68.70
55004;DHT22;40900;52.710;6.438;2022-08-11T16:14:11;32.50;68.70
55004;DHT22;40900;52.710;6.438;2022-08-11T16:16:57;32.60;68.90
55004;DHT22;40900;52.710;6.438;2022-08-11T16:19:24;32.40;69.10
55004;DHT22;40900;52.710;6.438;2022-08-11T16:21:52;32.40;68.80
55004;DHT22;40900;52.710;6.438;2022-08-11T16:24:20;32.50;69.10
55004;DHT22;40900;52.710;6.438;2022-08-11T16:26:47;32.50;69.20
55004;DHT22;40900;52.710;6.438;2022-08-11T16:29:14;32.50;69.00
55004;DHT22;40900;52.710;6.438;2022-08-11T16:31:40;32.40;69.20
55004;DHT22;40900;52.710;6.438;2022-08-11T16:34:08;32.40;68.60
55004;DHT22;40900;52.710;6.438;2022-08-11T16:36:55;32.40;68.60
55004;DHT22;40900;52.710;6.438;2022-08-11T16:39:40;32.20;69.30
55004;DHT22;40900;52.710;6.438;2022-08-11T16:42:08;32.20;69.20
55004;DHT22;40900;52.710;6.438;2022-08-11T16:44:54;32.10;69.30
55004;DHT22;40900;52.710;6.438;2022-08-11T16:47:41;32.00;69.20
55004;DHT22;40900;52.710;6.438;2022-08-11T16:50:08;32.00;69.00
55004;DHT22;40900;52.710;6.438;2022-08-11T16:52:34;31.90;69.30
55004;DHT22;40900;52.710;6.438;2022-08-11T16:55:01;31.80;69.40
55004;DHT22;40900;52.710;6.438;2022-08-11T16:57:28;31.70;69.60
55004;DHT22;40900;52.710;6.438;2022-08-11T17:00:15;31.70;69.90
55004;DHT22;40900;52.710;6.438;2022-08-11T17:02:48;31.70;69.80
55004;DHT22;40900;52.710;6.438;2022-08-11T17:05:34;31.60;70.20
55004;DHT22;40900;52.710;6.438;2022-08-11T17:08:45;31.60;70.50
55004;DHT22;40900;52.710;6.438;2022-08-11T17:11:33;31.50;71.20
55004;DHT22;40900;52.710;6.438;2022-08-11T17:14:35;31.40;71.00
55004;DHT22;40900;52.710;6.438;2022-08-11T17:17:06;31.40;71.60
55004;DHT22;40900;52.710;6.438;2022-08-11T17:19:35;31.30;71.60
55004;DHT22;40900;52.710;6.438;2022-08-11T17:22:02;31.30;72.00
55004;DHT22;40900;52.710;6.438;2022-08-11T17:24:47;31.20;72.30
55004;DHT22;40900;52.710;6.438;2022-08-11T17:27:17;31.00;72.00
55004;DHT22;40900;52.710;6.438;2022-08-11T17:29:49;30.90;72.20
55004;DHT22;40900;52.710;6.438;2022-08-11T17:32:19;30.90;72.60
55004;DHT22;40900;52.710;6.438;2022-08-11T17:35:11;30.80;72.80
55004;DHT22;40900;52.710;6.438;2022-08-11T17:40:37;30.70;74.90
55004;DHT22;40900;52.710;6.438;2022-08-11T17:43:06;30.50;75.10
55004;DHT22;40900;52.710;6.438;2022-08-11T17:45:53;30.50;76.00
55004;DHT22;40900;52.710;6.438;2022-08-11T17:48:41;30.30;76.30
55004;DHT22;40900;52.710;6.438;2022-08-11T17:51:10;30.30;76.80
55004;DHT22;40900;52.710;6.438;2022-08-11T17:53:41;30.20;76.90
55004;DHT22;40900;52.710;6.438;2022-08-11T17:56:28;30.30;77.00
55004;DHT22;40900;52.710;6.438;2022-08-11T17:59:14;30.10;77.20
55004;DHT22;40900;52.710;6.438;2022-08-11T18:02:04;30.10;77.30
55004;DHT22;40900;52.710;6.438;2022-08-11T18:04:50;30.00;77.60
55004;DHT22;40900;52.710;6.438;2022-08-11T18:07:17;30.00;77.60
55004;DHT22;40900;52.710;6.438;2022-08-11T18:10:06;29.80;77.80
55004;DHT22;40900;52.710;6.438;2022-08-11T18:12:52;29.80;78.10
55004;DHT22;40900;52.710;6.438;2022-08-11T18:15:39;29.70;78.30
55004;DHT22;40900;52.710;6.438;2022-08-11T18:18:24;29.50;78.60
55004;DHT22;40900;52.710;6.438;2022-08-11T18:21:09;29.40;78.80
55004;DHT22;40900;52.710;6.438;2022-08-11T18:23:54;29.40;79.10
55004;DHT22;40900;52.710;6.438;2022-08-11T18:26:43;29.40;79.00
55004;DHT22;40900;52.710;6.438;2022-08-11T18:29:30;29.40;79.60
55004;DHT22;40900;52.710;6.438;2022-08-11T18:32:16;29.30;79.70
55004;DHT22;40900;52.710;6.438;2022-08-11T18:35:02;29.20;79.90
55004;DHT22;40900;52.710;6.438;2022-08-11T18:37:48;29.20;80.40
55004;DHT22;40900;52.710;6.438;2022-08-11T18:40:34;29.10;81.30
55004;DHT22;40900;52.710;6.438;2022-08-11T18:43:20;29.00;82.00
55004;DHT22;40900;52.710;6.438;2022-08-11T18:46:06;28.80;82.80
55004;DHT22;40900;52.710;6.438;2022-08-11T18:48:56;28.70;83.20
55004;DHT22;40900;52.710;6.438;2022-08-11T18:51:47;28.60;83.70
55004;DHT22;40900;52.710;6.438;2022-08-11T18:54:35;28.50;84.10
55004;DHT22;40900;52.710;6.438;2022-08-11T18:57:21;28.30;84.60
55004;DHT22;40900;52.710;6.438;2022-08-11T19:00:07;28.10;85.10
55004;DHT22;40900;52.710;6.438;2022-08-11T19:02:52;28.10;85.10
55004;DHT22;40900;52.710;6.438;2022-08-11T19:05:38;28.00;85.70
55004;DHT22;40900;52.710;6.438;2022-08-11T19:08:29;28.00;85.70
55004;DHT22;40900;52.710;6.438;2022-08-11T19:11:14;28.00;86.80
55004;DHT22;40900;52.710;6.438;2022-08-11T19:14:01;27.80;86.40
55004;DHT22;40900;52.710;6.438;2022-08-11T19:16:47;27.80;86.60
55004;DHT22;40900;52.710;6.438;2022-08-11T19:19:34;27.70;87.10
55004;DHT22;40900;52.710;6.438;2022-08-11T19:22:19;27.60;87.30
55004;DHT22;40900;52.710;6.438;2022-08-11T19:25:06;27.60;87.50
55004;DHT22;40900;52.710;6.438;2022-08-11T19:27:52;27.60;88.00
55004;DHT22;40900;52.710;6.438;2022-08-11T19:30:37;27.50;88.00
55004;DHT22;40900;52.710;6.438;2022-08-11T19:33:21;27.40;88.30
55004;DHT22;40900;52.710;6.438;2022-08-11T19:36:06;27.30;89.10
55004;DHT22;40900;52.710;6.438;2022-08-11T19:38:51;27.20;88.80
55004;DHT22;40900;52.710;6.438;2022-08-11T19:41:37;27.10;89.20
55004;DHT22;40900;52.710;6.438;2022-08-11T19:44:22;27.00;89.60
55004;DHT22;40900;52.710;6.438;2022-08-11T19:47:07;27.00;89.60
55004;DHT22;40900;52.710;6.438;2022-08-11T19:49:53;27.00;89.70
55004;DHT22;40900;52.710;6.438;2022-08-11T19:52:38;26.90;90.00
55004;DHT22;40900;52.710;6.438;2022-08-11T19:55:25;26.80;90.10
55004;DHT22;40900;52.710;6.438;2022-08-11T19:58:13;26.70;90.20
55004;DHT22;40900;52.710;6.438;2022-08-11T20:00:59;26.70;90.30
55004;DHT22;40900;52.710;6.438;2022-08-11T20:03:43;26.50;90.40
55004;DHT22;40900;52.710;6.438;2022-08-11T20:06:28;26.50;90.50